createdAt,value
2019-04-26T00:01:20.539Z,97.70
2019-04-26T00:03:51.568Z,97.70
2019-04-26T00:06:21.894Z,97.90
2019-04-26T00:09:05.657Z,98.10
2019-04-26T00:11:50.973Z,98.20
2019-04-26T00:14:39.139Z,98.00
2019-04-26T00:17:13.617Z,97.60
2019-04-26T00:19:43.994Z,98.90
2019-04-26T00:22:15.368Z,97.90
2019-04-26T00:24:45.327Z,98.40
2019-04-26T00:27:15.240Z,98.30
2019-04-26T00:29:45.182Z,99.00
2019-04-26T00:32:15.425Z,98.70
2019-04-26T00:34:45.361Z,98.30
2019-04-26T00:37:15.910Z,98.70
2019-04-26T00:39:45.980Z,98.50
2019-04-26T00:42:16.505Z,98.60
2019-04-26T00:44:46.758Z,98.90
2019-04-26T00:47:19.040Z,98.60
2019-04-26T00:49:50.781Z,99.20
2019-04-26T00:52:21.609Z,98.90
2019-04-26T00:54:51.942Z,99.00
2019-04-26T00:57:22.456Z,98.70
2019-04-26T00:59:52.605Z,99.20
2019-04-26T01:02:33.244Z,99.50
2019-04-26T01:05:03.264Z,99.20
2019-04-26T01:07:33.116Z,99.10
2019-04-26T01:10:04.667Z,99.40
2019-04-26T01:12:34.521Z,99.50
2019-04-26T01:15:06.190Z,99.90
2019-04-26T01:17:36.196Z,99.60
2019-04-26T01:20:07.335Z,99.90
2019-04-26T01:22:40.238Z,99.90
2019-04-26T01:25:29.705Z,99.40
2019-04-26T01:28:00.467Z,99.40
2019-04-26T01:30:32.988Z,99.10
2019-04-26T01:33:04.051Z,99.40
2019-04-26T01:35:33.936Z,99.90
2019-04-26T01:38:07.730Z,99.90
2019-04-26T01:40:38.447Z,99.90
2019-04-26T01:43:10.449Z,99.90
2019-04-26T01:45:44.872Z,99.90
2019-04-26T01:48:51.221Z,99.90
2019-04-26T01:51:24.530Z,99.90
2019-04-26T01:53:55.707Z,99.90
2019-04-26T01:56:29.279Z,99.90
2019-04-26T01:59:00.507Z,99.90
2019-04-26T02:01:32.090Z,99.90
2019-04-26T02:04:02.068Z,99.90
2019-04-26T02:06:34.913Z,99.90
2019-04-26T02:09:05.167Z,99.90
2019-04-26T02:11:35.786Z,99.90
2019-04-26T02:14:06.271Z,99.90
2019-04-26T02:16:36.888Z,99.90
2019-04-26T02:19:06.947Z,99.90
2019-04-26T02:21:38.680Z,99.90
2019-04-26T02:24:15.975Z,99.90
2019-04-26T02:26:46.971Z,99.90
2019-04-26T02:29:22.793Z,99.90
2019-04-26T02:31:58.286Z,99.90
2019-04-26T02:34:31.090Z,99.90
2019-04-26T02:37:03.690Z,99.90
2019-04-26T02:39:39.804Z,99.90
2019-04-26T02:42:30.147Z,99.90
2019-04-26T02:45:22.080Z,99.90
2019-04-26T02:48:05.294Z,99.90
2019-04-26T02:50:38.744Z,99.90
2019-04-26T02:53:28.808Z,99.90
2019-04-26T02:56:16.154Z,99.90
2019-04-26T02:58:51.943Z,99.90
2019-04-26T03:01:21.897Z,99.90
2019-04-26T03:03:53.703Z,99.90
2019-04-26T03:06:23.994Z,99.90
2019-04-26T03:08:57.103Z,99.90
2019-04-26T03:11:31.463Z,99.90
2019-04-26T03:14:12.407Z,99.90
2019-04-26T03:17:03.145Z,99.90
2019-04-26T03:19:55.746Z,99.90
2019-04-26T03:22:39.425Z,99.90
2019-04-26T03:25:21.027Z,99.90
2019-04-26T03:28:25.698Z,99.90
2019-04-26T03:31:18.283Z,99.90
2019-04-26T03:34:17.623Z,99.90
2019-04-26T03:36:55.567Z,99.90
2019-04-26T03:39:37.148Z,99.90
2019-04-26T03:42:22.330Z,99.90
2019-04-26T03:44:55.138Z,99.90
2019-04-26T03:47:30.690Z,99.90
2019-04-26T03:50:15.651Z,99.90
2019-04-26T03:52:54.030Z,99.90
2019-04-26T03:55:28.424Z,99.90
2019-04-26T03:58:11.714Z,99.90
2019-04-26T04:00:48.277Z,99.90
2019-04-26T04:03:28.729Z,99.90
2019-04-26T04:06:02.288Z,99.90
2019-04-26T04:08:56.253Z,99.90
2019-04-26T04:11:30.094Z,99.90
2019-04-26T04:14:14.886Z,99.90
2019-04-26T04:16:51.951Z,99.90
2019-04-26T04:20:02.843Z,99.90
2019-04-26T04:22:35.695Z,99.90
2019-04-26T04:25:08.550Z,99.90
2019-04-26T04:27:41.991Z,99.90
2019-04-26T04:30:31.055Z,99.90
2019-04-26T04:33:24.983Z,99.90
2019-04-26T04:35:57.859Z,99.90
2019-04-26T04:38:34.216Z,99.90
2019-04-26T04:41:20.452Z,99.90
2019-04-26T04:44:06.614Z,99.90
2019-04-26T04:46:48.043Z,99.90
2019-04-26T04:49:41.210Z,99.90
2019-04-26T04:52:23.525Z,99.90
2019-04-26T04:55:07.503Z,99.90
2019-04-26T04:57:43.868Z,99.90
2019-04-26T05:00:51.910Z,99.90
2019-04-26T05:03:32.395Z,99.90
2019-04-26T05:06:21.718Z,99.90
2019-04-26T05:08:57.442Z,99.90
2019-04-26T05:11:47.649Z,99.70
2019-04-26T05:14:50.816Z,99.80
2019-04-26T05:17:41.802Z,99.90
2019-04-26T05:20:14.767Z,99.90
2019-04-26T05:23:21.019Z,99.60
2019-04-26T05:26:10.624Z,99.10
2019-04-26T05:29:04.528Z,98.80
2019-04-26T05:31:54.325Z,99.90
2019-04-26T05:34:31.249Z,99.50
2019-04-26T05:37:37.264Z,96.90
2019-04-26T05:40:30.863Z,99.30
2019-04-26T05:43:25.339Z,98.70
2019-04-26T05:46:21.918Z,99.60
2019-04-26T05:49:02.256Z,99.50
2019-04-26T05:51:45.449Z,99.90
2019-04-26T05:54:42.695Z,99.90
2019-04-26T05:57:36.461Z,99.40
2019-04-26T06:00:19.632Z,98.30
2019-04-26T06:03:16.005Z,98.80
2019-04-26T06:06:05.523Z,99.90
2019-04-26T06:08:45.703Z,99.40
2019-04-26T06:11:22.722Z,99.90
2019-04-26T06:14:20.987Z,99.90
2019-04-26T06:17:07.391Z,99.90
2019-04-26T06:19:47.288Z,99.70
2019-04-26T06:22:20.157Z,99.90
2019-04-26T06:25:00.451Z,99.60
2019-04-26T06:27:46.487Z,99.90
2019-04-26T06:30:22.962Z,99.90
2019-04-26T06:33:07.755Z,99.90
2019-04-26T06:35:42.312Z,99.90
2019-04-26T06:38:44.110Z,99.40
2019-04-26T06:41:25.371Z,99.60
2019-04-26T06:44:05.277Z,99.90
2019-04-26T06:47:05.195Z,99.90
2019-04-26T06:50:06.367Z,99.90
2019-04-26T06:52:39.219Z,99.90
2019-04-26T06:55:13.652Z,99.50
2019-04-26T06:58:21.515Z,99.70
2019-04-26T07:01:08.038Z,99.90
2019-04-26T07:03:53.295Z,99.90
2019-04-26T07:06:35.341Z,99.10
2019-04-26T07:09:11.501Z,99.90
2019-04-26T07:12:10.183Z,99.90
2019-04-26T07:14:59.293Z,99.30
2019-04-26T07:17:49.277Z,99.70
2019-04-26T07:20:22.296Z,99.10
2019-04-26T07:23:30.343Z,98.40
2019-04-26T07:26:14.966Z,97.90
2019-04-26T07:29:01.392Z,98.80
2019-04-26T07:31:43.178Z,98.10
2019-04-26T07:34:17.652Z,97.00
2019-04-26T07:36:53.291Z,98.50
2019-04-26T07:39:52.224Z,97.80
2019-04-26T07:42:47.683Z,96.50
2019-04-26T07:45:36.752Z,97.60
2019-04-26T07:48:24.974Z,96.40
2019-04-26T07:51:17.455Z,96.00
2019-04-26T07:54:18.960Z,96.60
2019-04-26T07:57:08.703Z,94.70
2019-04-26T08:00:06.518Z,94.40
2019-04-26T08:02:44.148Z,95.10
2019-04-26T08:05:24.699Z,95.60
2019-04-26T08:07:57.656Z,94.60
2019-04-26T08:10:30.225Z,93.70
2019-04-26T08:13:09.998Z,93.40
2019-04-26T08:15:56.684Z,92.80
2019-04-26T08:18:36.804Z,91.50
2019-04-26T08:21:18.496Z,94.30
2019-04-26T08:23:56.512Z,93.30
2019-04-26T08:26:27.195Z,92.50
2019-04-26T08:29:00.595Z,90.00
2019-04-26T08:31:36.035Z,92.90
2019-04-26T08:34:12.275Z,93.40
2019-04-26T08:36:51.658Z,91.80
2019-04-26T08:39:32.555Z,93.40
2019-04-26T08:42:01.812Z,92.00
2019-04-26T08:44:40.091Z,93.90
2019-04-26T08:47:16.440Z,92.40
2019-04-26T08:49:54.490Z,90.70
2019-04-26T08:52:28.195Z,90.00
2019-04-26T08:55:00.813Z,90.90
2019-04-26T08:57:33.735Z,83.20
2019-04-26T09:00:10.994Z,89.10
2019-04-26T09:02:45.763Z,87.50
2019-04-26T09:05:32.119Z,80.00
2019-04-26T09:08:04.320Z,79.20
2019-04-26T09:10:39.354Z,83.50
2019-04-26T09:13:10.963Z,87.10
2019-04-26T09:16:06.723Z,82.60
2019-04-26T09:18:43.451Z,85.60
2019-04-26T09:21:08.347Z,74.10
2019-04-26T09:23:51.118Z,79.00
2019-04-26T09:26:30.498Z,80.50
2019-04-26T09:29:18.147Z,83.50
2019-04-26T09:31:50.510Z,84.50
2019-04-26T09:34:33.753Z,84.50
2019-04-26T09:37:03.864Z,76.60
2019-04-26T09:39:33.779Z,80.60
2019-04-26T09:42:12.012Z,72.80
2019-04-26T09:44:49.545Z,66.80
2019-04-26T09:47:37.591Z,68.60
2019-04-26T09:50:16.732Z,71.00
2019-04-26T09:52:51.095Z,63.30
2019-04-26T09:55:20.978Z,70.00
2019-04-26T09:57:53.537Z,75.70
2019-04-26T10:00:24.536Z,76.10
2019-04-26T10:02:54.536Z,81.40
2019-04-26T10:05:24.530Z,77.50
2019-04-26T10:07:54.502Z,74.00
2019-04-26T10:10:26.456Z,72.30
2019-04-26T10:13:00.995Z,77.10
2019-04-26T10:15:48.491Z,71.60
2019-04-26T10:18:20.263Z,65.10
2019-04-26T10:20:51.610Z,70.60
2019-04-26T10:23:21.537Z,69.10
2019-04-26T10:25:51.925Z,69.30
2019-04-26T10:28:22.972Z,68.50
2019-04-26T10:30:52.840Z,72.00
2019-04-26T10:33:22.819Z,68.50
2019-04-26T10:35:56.543Z,68.10
2019-04-26T10:38:25.460Z,63.40
2019-04-26T10:40:55.565Z,64.60
2019-04-26T10:43:25.450Z,58.20
2019-04-26T10:45:55.359Z,59.00
2019-04-26T10:48:25.402Z,61.40
2019-04-26T10:50:55.282Z,62.30
2019-04-26T10:53:39.010Z,60.30
2019-04-26T10:56:20.244Z,61.10
2019-04-26T10:58:58.373Z,70.90
2019-04-26T11:01:29.448Z,65.30
2019-04-26T11:03:59.391Z,65.30
2019-04-26T11:06:29.281Z,63.40
2019-04-26T11:08:59.214Z,59.40
2019-04-26T11:11:29.176Z,57.80
2019-04-26T11:13:59.095Z,56.00
2019-04-26T11:16:29.042Z,54.60
2019-04-26T11:19:01.179Z,55.80
2019-04-26T11:21:31.506Z,54.40
2019-04-26T11:24:01.387Z,54.30
2019-04-26T11:26:34.668Z,56.50
2019-04-26T11:29:02.851Z,53.30
2019-04-26T11:31:32.803Z,56.90
2019-04-26T11:34:05.510Z,57.40
2019-04-26T11:36:37.616Z,55.20
2019-04-26T11:39:08.069Z,53.90
2019-04-26T11:41:39.169Z,51.50
2019-04-26T11:44:09.230Z,52.00
2019-04-26T11:46:45.050Z,51.00
2019-04-26T11:49:10.952Z,52.80
2019-04-26T11:51:40.854Z,54.90
2019-04-26T11:54:10.891Z,52.90
2019-04-26T11:56:40.798Z,52.10
2019-04-26T11:59:10.676Z,53.70
2019-04-26T12:01:42.034Z,53.20
2019-04-26T12:04:16.400Z,53.90
2019-04-26T12:07:04.204Z,54.10
2019-04-26T12:09:39.383Z,53.60
2019-04-26T12:12:12.922Z,53.50
2019-04-26T12:14:40.881Z,52.90
2019-04-26T12:17:10.941Z,52.80
2019-04-26T12:19:40.949Z,53.10
2019-04-26T12:22:10.904Z,54.30
2019-04-26T12:24:40.903Z,53.20
2019-04-26T12:27:10.914Z,55.60
2019-04-26T12:29:44.285Z,53.00
2019-04-26T12:32:12.679Z,55.10
2019-04-26T12:34:42.796Z,54.00
2019-04-26T12:37:19.712Z,55.30
2019-04-26T12:39:45.155Z,54.40
2019-04-26T12:42:15.324Z,55.30
2019-04-26T12:44:46.826Z,57.50
2019-04-26T12:47:21.380Z,52.40
2019-04-26T12:49:54.536Z,53.70
2019-04-26T12:52:22.946Z,53.10
2019-04-26T12:54:52.825Z,51.20
2019-04-26T12:57:22.693Z,52.20
2019-04-26T12:59:52.610Z,51.90
2019-04-26T13:02:22.525Z,53.50
2019-04-26T13:04:52.475Z,56.00
2019-04-26T13:07:24.452Z,52.60
2019-04-26T13:10:12.817Z,51.10
2019-04-26T13:12:49.601Z,52.60
2019-04-26T13:15:54.809Z,51.70
2019-04-26T13:18:23.753Z,52.60
2019-04-26T13:20:52.665Z,51.90
2019-04-26T13:23:25.271Z,49.90
2019-04-26T13:25:55.446Z,49.20
2019-04-26T13:28:22.866Z,49.50
2019-04-26T13:30:51.846Z,47.70
2019-04-26T13:33:23.249Z,47.90
2019-04-26T13:36:02.708Z,46.50
2019-04-26T13:38:21.980Z,48.10
2019-04-26T13:40:50.965Z,48.60
2019-04-26T13:43:22.722Z,48.20
2019-04-26T13:45:52.041Z,47.70
2019-04-26T13:48:25.408Z,46.10
2019-04-26T13:50:57.331Z,46.90
2019-04-26T13:53:27.170Z,50.30
2019-04-26T13:55:58.386Z,49.40
2019-04-26T13:58:28.199Z,48.80
2019-04-26T14:00:57.186Z,49.90
2019-04-26T14:03:27.080Z,49.20
2019-04-26T14:05:56.699Z,50.50
2019-04-26T14:08:25.620Z,50.90
2019-04-26T14:10:54.601Z,50.20
2019-04-26T14:13:24.902Z,51.40
2019-04-26T14:15:54.147Z,51.40
2019-04-26T14:18:23.119Z,51.00
2019-04-26T14:20:54.749Z,52.20
2019-04-26T14:23:30.295Z,52.40
2019-04-26T14:26:17.356Z,53.20
2019-04-26T14:28:46.376Z,53.40
2019-04-26T14:31:16.475Z,53.40
2019-04-26T14:33:46.039Z,54.00
2019-04-26T14:36:18.154Z,55.10
2019-04-26T14:38:46.688Z,56.70
2019-04-26T14:41:22.027Z,55.60
2019-04-26T14:43:46.235Z,57.50
2019-04-26T14:46:16.377Z,55.20
2019-04-26T14:49:00.605Z,56.10
2019-04-26T14:51:18.640Z,57.50
2019-04-26T14:53:47.929Z,58.70
2019-04-26T14:56:16.896Z,57.30
2019-04-26T14:58:45.851Z,57.80
2019-04-26T15:01:18.313Z,58.70
2019-04-26T15:04:06.113Z,60.10
2019-04-26T15:06:37.529Z,61.20
2019-04-26T15:09:18.052Z,63.90
2019-04-26T15:11:51.174Z,64.20
2019-04-26T15:14:12.763Z,65.70
2019-04-26T15:16:44.954Z,69.10
2019-04-26T15:19:14.921Z,69.30
2019-04-26T15:21:44.817Z,73.10
2019-04-26T15:24:14.730Z,77.30
2019-04-26T15:26:44.663Z,74.70
2019-04-26T15:29:14.531Z,74.50
2019-04-26T15:31:44.420Z,81.80
2019-04-26T15:34:14.335Z,90.30
2019-04-26T15:36:47.911Z,92.60
2019-04-26T15:39:33.112Z,93.60
2019-04-26T15:42:23.792Z,94.40
2019-04-26T15:44:57.551Z,95.40
2019-04-26T15:47:43.484Z,95.90
2019-04-26T15:50:17.793Z,97.90
2019-04-26T15:52:47.723Z,98.40
2019-04-26T15:55:17.646Z,98.80
2019-04-26T15:57:47.563Z,99.90
2019-04-26T16:00:17.676Z,99.90
2019-04-26T16:02:47.675Z,99.90
2019-04-26T16:05:17.575Z,99.90
2019-04-26T16:07:47.471Z,99.90
2019-04-26T16:10:17.539Z,99.90
2019-04-26T16:12:47.476Z,99.90
2019-04-26T16:15:17.452Z,99.90
2019-04-26T16:17:47.401Z,99.90
2019-04-26T16:20:17.295Z,99.90
2019-04-26T16:22:49.109Z,99.90
2019-04-26T16:25:18.778Z,99.90
2019-04-26T16:27:50.251Z,99.90
2019-04-26T16:30:28.408Z,99.90
2019-04-26T16:32:58.949Z,99.90
2019-04-26T16:35:29.508Z,99.90
2019-04-26T16:38:02.627Z,99.90
2019-04-26T16:40:32.672Z,99.90
2019-04-26T16:43:04.204Z,99.90
2019-04-26T16:45:37.283Z,99.90
2019-04-26T16:48:05.805Z,99.90
2019-04-26T16:50:41.924Z,99.90
2019-04-26T16:53:23.219Z,99.90
2019-04-26T16:55:48.900Z,99.90
2019-04-26T16:58:12.645Z,99.90
2019-04-26T17:00:51.623Z,99.90
2019-04-26T17:03:14.381Z,99.90
2019-04-26T17:05:48.103Z,99.90
2019-04-26T17:08:19.076Z,99.90
2019-04-26T17:10:47.467Z,99.90
2019-04-26T17:13:17.390Z,99.90
2019-04-26T17:15:47.263Z,99.90
2019-04-26T17:18:19.317Z,99.90
2019-04-26T17:20:49.010Z,99.90
2019-04-26T17:23:23.948Z,99.90
2019-04-26T17:26:06.784Z,99.90
2019-04-26T17:28:36.872Z,99.90
2019-04-26T17:31:06.758Z,99.90
2019-04-26T17:33:36.668Z,99.90
2019-04-26T17:36:11.348Z,99.90
2019-04-26T17:38:40.522Z,99.90
2019-04-26T17:41:13.418Z,99.90
2019-04-26T17:43:47.601Z,99.90
2019-04-26T17:46:14.569Z,99.90
2019-04-26T17:48:49.444Z,99.90
2019-04-26T17:51:19.356Z,99.90
2019-04-26T17:53:50.618Z,99.90
2019-04-26T17:56:21.522Z,99.90
2019-04-26T17:58:54.570Z,99.90
2019-04-26T18:01:42.242Z,99.90
2019-04-26T18:03:55.924Z,99.90
2019-04-26T18:06:29.835Z,99.90
2019-04-26T18:08:57.588Z,99.90
2019-04-26T18:11:27.522Z,99.90
2019-04-26T18:13:57.592Z,99.90
2019-04-26T18:16:29.658Z,99.90
2019-04-26T18:19:05.122Z,99.90
2019-04-26T18:21:39.814Z,99.90
2019-04-26T18:24:09.912Z,99.90
2019-04-26T18:26:39.913Z,99.90
2019-04-26T18:29:09.939Z,99.90
2019-04-26T18:31:39.970Z,99.90
2019-04-26T18:34:09.978Z,99.90
2019-04-26T18:36:40.053Z,99.90
2019-04-26T18:39:10.245Z,99.90
2019-04-26T18:41:40.463Z,99.90
2019-04-26T18:44:10.381Z,99.90
2019-04-26T18:46:47.907Z,99.90
2019-04-26T18:49:22.509Z,99.90
2019-04-26T18:51:50.135Z,99.90
2019-04-26T18:54:24.442Z,99.90
2019-04-26T18:56:58.879Z,99.90
2019-04-26T18:59:28.756Z,99.90
2019-04-26T19:01:58.676Z,99.90
2019-04-26T19:04:28.569Z,99.90
2019-04-26T19:06:59.411Z,99.90
2019-04-26T19:09:31.387Z,99.90
2019-04-26T19:12:01.639Z,99.90
2019-04-26T19:14:33.484Z,99.90
2019-04-26T19:17:14.166Z,99.90
2019-04-26T19:20:02.090Z,99.90
2019-04-26T19:22:34.582Z,99.90
2019-04-26T19:25:18.825Z,99.90
2019-04-26T19:27:47.260Z,99.90
2019-04-26T19:30:11.078Z,99.90
2019-04-26T19:32:41.065Z,99.90
2019-04-26T19:35:14.290Z,99.90
2019-04-26T19:37:43.394Z,99.90
2019-04-26T19:40:15.155Z,99.90
2019-04-26T19:42:45.030Z,99.90
2019-04-26T19:45:22.346Z,99.90
2019-04-26T19:48:18.735Z,99.90
2019-04-26T19:50:54.292Z,99.90
2019-04-26T19:53:25.734Z,99.90
2019-04-26T19:56:06.108Z,99.90
2019-04-26T19:58:41.960Z,99.90
2019-04-26T20:01:16.467Z,99.90
2019-04-26T20:03:47.377Z,99.90
2019-04-26T20:06:18.784Z,99.90
2019-04-26T20:08:49.636Z,99.90
2019-04-26T20:11:20.080Z,99.90
2019-04-26T20:13:51.917Z,99.90
2019-04-26T20:16:22.328Z,99.90
2019-04-26T20:18:53.087Z,99.90
2019-04-26T20:21:23.017Z,99.90
2019-04-26T20:23:54.556Z,99.90
2019-04-26T20:26:24.634Z,99.90
2019-04-26T20:28:54.511Z,99.90
2019-04-26T20:31:37.625Z,99.90
2019-04-26T20:34:10.761Z,99.90
2019-04-26T20:36:41.629Z,99.90
2019-04-26T20:39:09.575Z,99.90
2019-04-26T20:41:40.027Z,99.90
2019-04-26T20:44:10.266Z,99.90
2019-04-26T20:46:42.494Z,99.90
2019-04-26T20:49:12.253Z,99.90
2019-04-26T20:51:46.052Z,99.90
2019-04-26T20:54:16.278Z,99.90
2019-04-26T20:56:46.176Z,99.90
2019-04-26T20:59:20.097Z,99.90
2019-04-26T21:02:02.480Z,99.90
2019-04-26T21:04:35.104Z,99.90
2019-04-26T21:06:52.049Z,99.90
2019-04-26T21:09:23.255Z,99.90
2019-04-26T21:11:53.118Z,99.90
2019-04-26T21:14:23.368Z,99.90
2019-04-26T21:16:53.305Z,99.90
2019-04-26T21:19:23.236Z,99.90
2019-04-26T21:21:53.248Z,99.90
2019-04-26T21:24:24.676Z,99.90
2019-04-26T21:27:02.168Z,99.90
2019-04-26T21:29:36.552Z,99.90
2019-04-26T21:32:08.050Z,99.90
2019-04-26T21:34:44.972Z,99.90
2019-04-26T21:37:23.668Z,99.90
2019-04-26T21:39:58.102Z,99.90
2019-04-26T21:42:28.027Z,99.90
2019-04-26T21:44:57.927Z,99.90
2019-04-26T21:47:31.862Z,99.90
2019-04-26T21:50:00.761Z,99.90
2019-04-26T21:52:32.053Z,99.90
2019-04-26T21:55:01.910Z,99.90
2019-04-26T21:57:31.979Z,99.90
2019-04-26T22:00:04.021Z,99.90
2019-04-26T22:02:37.490Z,99.90
2019-04-26T22:05:07.967Z,99.90
2019-04-26T22:07:39.485Z,99.90
2019-04-26T22:10:23.928Z,99.90
2019-04-26T22:12:53.982Z,99.90
2019-04-26T22:15:29.597Z,99.90
2019-04-26T22:18:03.201Z,99.90
2019-04-26T22:20:44.347Z,99.90
2019-04-26T22:23:16.314Z,99.90
2019-04-26T22:25:50.054Z,99.90
2019-04-26T22:28:19.974Z,99.90
2019-04-26T22:30:51.076Z,99.90
2019-04-26T22:33:21.016Z,99.90
2019-04-26T22:35:55.265Z,99.90
2019-04-26T22:38:26.612Z,99.90
2019-04-26T22:40:56.133Z,99.90
2019-04-26T22:43:27.121Z,99.90
2019-04-26T22:46:03.182Z,99.90
2019-04-26T22:48:37.717Z,99.90
2019-04-26T22:51:07.669Z,99.90
2019-04-26T22:53:37.575Z,99.90
2019-04-26T22:56:08.493Z,99.90
2019-04-26T22:58:38.523Z,99.90
2019-04-26T23:01:08.520Z,99.90
2019-04-26T23:03:41.231Z,99.90
2019-04-26T23:06:12.943Z,99.90
2019-04-26T23:08:43.804Z,99.90
2019-04-26T23:11:13.840Z,99.90
2019-04-26T23:13:45.360Z,99.90
2019-04-26T23:16:16.816Z,99.90
2019-04-26T23:18:48.314Z,99.90
2019-04-26T23:21:33.918Z,99.90
2019-04-26T23:24:03.869Z,99.90
2019-04-26T23:26:37.557Z,99.90
2019-04-26T23:29:08.725Z,99.90
2019-04-26T23:31:37.533Z,99.90
2019-04-26T23:34:07.773Z,99.90
2019-04-26T23:36:37.668Z,99.90
2019-04-26T23:39:11.816Z,99.90
2019-04-26T23:41:41.579Z,99.90
2019-04-26T23:44:10.971Z,99.90
2019-04-26T23:46:40.875Z,99.90
2019-04-26T23:49:10.801Z,99.90
2019-04-26T23:51:42.952Z,99.90
2019-04-26T23:54:13.734Z,99.90
2019-04-26T23:56:43.891Z,99.90
2019-04-26T23:59:14.990Z,99.90
